createdAt,value
2022-12-22T00:02:07.218Z,27.83
2022-12-22T00:04:52.711Z,54.85
2022-12-22T00:07:38.136Z,30.98
2022-12-22T00:10:24.146Z,21.35
2022-12-22T00:13:09.349Z,20.77
2022-12-22T00:15:54.790Z,21.20
2022-12-22T00:18:40.187Z,21.35
2022-12-22T00:21:25.546Z,20.63
2022-12-22T00:24:11.203Z,22.77
2022-12-22T00:26:56.526Z,22.98
2022-12-22T00:29:42.068Z,22.15
2022-12-22T00:32:32.712Z,25.25
2022-12-22T00:35:18.622Z,26.10
2022-12-22T00:38:04.276Z,30.98
2022-12-22T00:40:49.864Z,31.60
2022-12-22T00:43:35.259Z,28.48
2022-12-22T00:46:22.550Z,79.13
2022-12-22T00:49:08.381Z,31.77
2022-12-22T00:51:53.892Z,24.35
2022-12-22T00:54:41.544Z,78.55
2022-12-22T00:57:38.596Z,90.15
2022-12-22T01:00:33.039Z,150.55
2022-12-22T01:06:04.193Z,123.82
2022-12-22T01:08:50.068Z,139.63
2022-12-22T01:11:35.622Z,50.78
2022-12-22T01:14:21.039Z,78.38
2022-12-22T01:17:06.485Z,88.13
2022-12-22T01:19:51.772Z,102.00
2022-12-22T01:22:40.201Z,108.22
2022-12-22T01:25:35.304Z,88.60
2022-12-22T01:28:21.559Z,96.95
2022-12-22T01:31:07.436Z,53.80
2022-12-22T01:33:52.508Z,64.07
2022-12-22T01:36:38.120Z,41.47
2022-12-22T01:39:23.656Z,97.28
2022-12-22T01:42:09.065Z,40.17
2022-12-22T01:44:54.551Z,31.48
2022-12-22T01:47:46.113Z,43.53
2022-12-22T01:50:33.117Z,83.28
2022-12-22T01:53:20.297Z,145.25
2022-12-22T01:56:06.509Z,31.92
2022-12-22T01:58:57.893Z,159.15
2022-12-22T02:01:43.861Z,29.92
2022-12-22T02:04:29.443Z,39.17
2022-12-22T02:07:23.115Z,23.52
2022-12-22T02:10:32.964Z,20.30
2022-12-22T02:13:44.045Z,123.28
2022-12-22T02:16:53.282Z,57.15
2022-12-22T02:20:29.333Z,29.45
2022-12-22T02:23:36.722Z,22.10
2022-12-22T02:26:44.030Z,23.00
2022-12-22T02:29:31.999Z,26.02
2022-12-22T02:32:17.845Z,18.10
2022-12-22T02:35:03.318Z,20.52
2022-12-22T02:38:00.933Z,17.42
2022-12-22T02:41:11.362Z,20.92
2022-12-22T02:44:28.257Z,21.35
2022-12-22T02:47:34.073Z,21.90
2022-12-22T02:50:29.151Z,23.00
2022-12-22T02:53:15.720Z,21.20
2022-12-22T02:56:01.358Z,31.08
2022-12-22T02:58:50.269Z,22.60
2022-12-22T03:01:35.843Z,23.40
2022-12-22T03:04:21.270Z,18.10
2022-12-22T03:07:06.507Z,24.17
2022-12-22T03:09:52.032Z,19.42
2022-12-22T03:12:37.552Z,193.52
2022-12-22T03:15:23.105Z,31.02
2022-12-22T03:18:08.535Z,21.63
2022-12-22T03:20:53.989Z,25.73
2022-12-22T03:23:39.702Z,27.52
2022-12-22T03:26:06.456Z,26.98
2022-12-22T03:28:33.254Z,31.20
2022-12-22T03:31:05.240Z,32.67
2022-12-22T03:33:32.991Z,34.38
2022-12-22T03:36:00.288Z,34.72
2022-12-22T03:38:27.139Z,31.38
2022-12-22T03:40:53.940Z,30.17
2022-12-22T03:43:39.448Z,26.05
2022-12-22T03:46:25.307Z,26.73
2022-12-22T03:49:10.361Z,28.63
2022-12-22T03:51:46.087Z,164.77
2022-12-22T03:54:16.252Z,70.90
2022-12-22T03:56:43.215Z,159.77
2022-12-22T03:59:10.673Z,93.72
2022-12-22T04:01:41.341Z,46.00
2022-12-22T04:04:08.961Z,22.83
2022-12-22T04:06:35.763Z,23.75
2022-12-22T04:09:02.951Z,29.13
2022-12-22T04:11:48.483Z,54.08
2022-12-22T04:14:15.709Z,32.78
2022-12-22T04:16:42.602Z,36.35
2022-12-22T04:19:10.151Z,17.42
2022-12-22T04:21:37.640Z,36.75
2022-12-22T04:24:04.842Z,39.92
2022-12-22T04:26:32.088Z,21.55
2022-12-22T04:28:58.886Z,26.67
2022-12-22T04:31:25.727Z,24.85
2022-12-22T04:33:52.539Z,94.07
2022-12-22T04:36:19.548Z,148.93
2022-12-22T04:38:46.393Z,77.43
2022-12-22T04:41:13.197Z,28.83
2022-12-22T04:43:40.063Z,27.50
2022-12-22T04:46:07.051Z,53.90
2022-12-22T04:48:34.659Z,44.15
2022-12-22T04:51:01.746Z,26.48
2022-12-22T04:53:29.954Z,51.22
2022-12-22T04:55:59.944Z,39.92
2022-12-22T04:58:27.223Z,33.10
2022-12-22T05:00:54.446Z,37.42
2022-12-22T05:03:21.720Z,45.55
2022-12-22T05:05:48.630Z,45.17
2022-12-22T05:08:15.411Z,58.08
2022-12-22T05:10:42.224Z,47.72
2022-12-22T05:13:08.999Z,23.85
2022-12-22T05:15:36.803Z,23.25
2022-12-22T05:18:04.756Z,18.25
2022-12-22T05:20:32.060Z,15.32
2022-12-22T05:22:59.033Z,9.02
2022-12-22T05:25:29.838Z,9.85
2022-12-22T05:27:59.793Z,8.60
2022-12-22T05:30:26.683Z,10.82
2022-12-22T05:32:53.531Z,8.43
2022-12-22T05:35:20.269Z,8.90
2022-12-22T05:37:47.032Z,7.38
2022-12-22T05:40:13.988Z,8.30
2022-12-22T05:42:40.798Z,10.50
2022-12-22T05:45:21.103Z,12.48
2022-12-22T05:47:50.857Z,6.38
2022-12-22T05:50:21.327Z,3.40
2022-12-22T05:52:58.448Z,7.78
2022-12-22T05:55:25.231Z,7.32
2022-12-22T05:57:51.987Z,8.85
2022-12-22T06:00:19.350Z,7.00
2022-12-22T06:02:46.280Z,7.25
2022-12-22T06:05:15.341Z,7.70
2022-12-22T06:07:42.167Z,6.90
2022-12-22T06:10:12.623Z,6.07
2022-12-22T06:12:41.317Z,8.05
2022-12-22T06:15:10.167Z,7.32
2022-12-22T06:17:43.997Z,6.82
2022-12-22T06:20:13.030Z,5.57
2022-12-22T06:22:39.868Z,6.00
2022-12-22T06:25:06.877Z,5.32
2022-12-22T06:27:33.718Z,3.42
2022-12-22T06:30:00.546Z,7.45
2022-12-22T06:32:27.408Z,4.50
2022-12-22T06:34:54.249Z,4.88
2022-12-22T06:37:21.099Z,3.78
2022-12-22T06:39:47.839Z,6.45
2022-12-22T06:42:33.352Z,7.63
2022-12-22T06:45:00.166Z,9.07
2022-12-22T06:47:27.025Z,7.22
2022-12-22T06:49:53.820Z,7.40
2022-12-22T06:52:20.571Z,10.85
2022-12-22T06:54:47.332Z,6.07
2022-12-22T06:57:14.379Z,4.95
2022-12-22T06:59:41.134Z,5.75
2022-12-22T07:02:10.436Z,5.03
2022-12-22T07:04:37.648Z,8.70
2022-12-22T07:07:04.429Z,10.30
2022-12-22T07:09:31.199Z,7.07
2022-12-22T07:11:57.987Z,5.90
2022-12-22T07:14:24.777Z,8.45
2022-12-22T07:16:51.675Z,6.88
2022-12-22T07:19:18.598Z,7.93
2022-12-22T07:21:47.443Z,7.95
2022-12-22T07:24:14.229Z,10.05
2022-12-22T07:26:40.990Z,5.50
2022-12-22T07:29:07.927Z,4.72
2022-12-22T07:31:34.819Z,5.47
2022-12-22T07:34:01.710Z,8.13
2022-12-22T07:36:28.458Z,46.75
2022-12-22T07:38:55.402Z,11.70
2022-12-22T07:41:41.379Z,9.25
2022-12-22T07:44:08.351Z,4.95
2022-12-22T07:46:37.770Z,4.25
2022-12-22T07:49:24.378Z,9.23
2022-12-22T07:51:51.834Z,3.20
2022-12-22T07:54:19.265Z,2.88
2022-12-22T07:56:46.807Z,2.65
2022-12-22T07:59:14.516Z,3.88
2022-12-22T08:01:42.137Z,4.10
2022-12-22T08:04:10.457Z,15.77
2022-12-22T08:06:37.953Z,3.88
2022-12-22T08:09:06.285Z,3.60
2022-12-22T08:11:34.582Z,3.08
2022-12-22T08:14:02.293Z,4.22
2022-12-22T08:16:29.629Z,3.15
2022-12-22T08:18:57.396Z,9.10
2022-12-22T08:21:24.487Z,3.45
2022-12-22T08:23:51.923Z,2.88
2022-12-22T08:26:25.315Z,2.60
2022-12-22T08:29:15.923Z,4.53
2022-12-22T08:31:43.829Z,4.15
2022-12-22T08:34:14.396Z,2.08
2022-12-22T08:36:46.986Z,3.72
2022-12-22T08:39:15.070Z,2.63
2022-12-22T08:41:51.520Z,3.15
2022-12-22T08:44:24.829Z,3.42
2022-12-22T08:46:53.180Z,4.25
2022-12-22T08:49:20.536Z,2.17
2022-12-22T08:51:48.049Z,2.15
2022-12-22T08:54:15.768Z,7.57
2022-12-22T08:56:43.146Z,2.20
2022-12-22T08:59:10.501Z,3.28
2022-12-22T09:01:39.418Z,2.75
2022-12-22T09:04:09.893Z,2.58
2022-12-22T09:06:41.142Z,2.15
2022-12-22T09:09:10.647Z,3.33
2022-12-22T09:11:38.751Z,4.95
2022-12-22T09:14:06.353Z,4.32
2022-12-22T09:16:34.299Z,4.75
2022-12-22T09:19:01.892Z,3.33
2022-12-22T09:21:29.560Z,4.65
2022-12-22T09:23:57.213Z,6.13
2022-12-22T09:26:25.387Z,4.20
2022-12-22T09:28:52.863Z,2.83
2022-12-22T09:31:21.819Z,2.83
2022-12-22T09:33:49.236Z,2.97
2022-12-22T09:36:18.481Z,4.15
2022-12-22T09:38:45.447Z,2.70
2022-12-22T09:41:35.007Z,3.72
2022-12-22T09:44:13.230Z,5.22
2022-12-22T09:46:40.905Z,4.28
2022-12-22T09:49:08.633Z,2.90
2022-12-22T09:51:43.005Z,4.38
2022-12-22T09:54:12.400Z,4.22
2022-12-22T09:56:39.710Z,2.33
2022-12-22T09:59:20.845Z,3.50
2022-12-22T10:02:18.756Z,4.18
2022-12-22T10:05:28.694Z,5.80
2022-12-22T10:08:01.735Z,2.88
2022-12-22T10:10:31.257Z,2.25
2022-12-22T10:13:01.656Z,5.00
2022-12-22T10:15:38.480Z,2.45
2022-12-22T10:18:24.260Z,3.90
2022-12-22T10:21:08.482Z,6.03
2022-12-22T10:26:28.828Z,2.72
2022-12-22T10:29:14.257Z,2.17
2022-12-22T10:32:02.408Z,2.97
2022-12-22T10:34:30.130Z,3.08
2022-12-22T10:37:01.551Z,2.47
2022-12-22T10:39:33.146Z,3.75
2022-12-22T10:42:08.164Z,4.22
2022-12-22T10:44:38.302Z,2.42
2022-12-22T10:47:21.242Z,3.78
2022-12-22T10:52:29.578Z,9.93
2022-12-22T10:55:19.219Z,4.10
2022-12-22T10:57:46.367Z,10.55
2022-12-22T11:00:28.667Z,4.15
2022-12-22T11:02:58.879Z,1.65
2022-12-22T11:05:26.588Z,4.03
2022-12-22T11:07:54.207Z,4.53
2022-12-22T11:10:33.822Z,3.45
2022-12-22T11:13:38.272Z,6.10
2022-12-22T11:16:11.984Z,4.50
2022-12-22T11:18:54.845Z,3.92
2022-12-22T11:21:27.794Z,2.88
2022-12-22T11:24:38.349Z,7.30
2022-12-22T11:27:27.959Z,2.88
2022-12-22T11:30:08.101Z,5.30
2022-12-22T11:32:34.921Z,4.90
2022-12-22T11:35:16.973Z,6.50
2022-12-22T11:38:02.288Z,1.90
2022-12-22T11:40:33.587Z,4.38
2022-12-22T11:43:18.067Z,5.65
2022-12-22T11:46:00.253Z,1.38
2022-12-22T11:48:46.312Z,2.95
2022-12-22T11:51:38.214Z,3.90
2022-12-22T11:54:25.333Z,5.30
2022-12-22T11:57:19.522Z,3.90
2022-12-22T12:00:01.215Z,5.93
2022-12-22T12:03:00.283Z,3.75
2022-12-22T12:05:48.494Z,5.28
2022-12-22T12:08:21.644Z,4.75
2022-12-22T12:10:54.879Z,2.30
2022-12-22T12:13:38.950Z,7.60
2022-12-22T12:18:39.874Z,3.97
2022-12-22T12:21:18.678Z,5.38
2022-12-22T12:24:26.498Z,3.22
2022-12-22T12:27:18.309Z,3.22
2022-12-22T12:30:36.487Z,5.07
2022-12-22T12:33:01.838Z,6.72
2022-12-22T12:35:39.989Z,8.65
2022-12-22T12:39:06.426Z,5.13
2022-12-22T12:41:28.108Z,17.10
2022-12-22T12:43:56.416Z,5.55
2022-12-22T12:46:51.459Z,7.75
2022-12-22T12:49:36.721Z,3.28
2022-12-22T12:52:07.751Z,6.95
2022-12-22T12:54:47.952Z,7.90
2022-12-22T12:57:29.795Z,5.53
2022-12-22T12:59:59.671Z,7.22
2022-12-22T13:02:40.111Z,9.35
2022-12-22T13:05:13.042Z,10.27
2022-12-22T13:08:07.597Z,7.55
2022-12-22T13:13:03.474Z,7.93
2022-12-22T13:15:38.368Z,4.80
2022-12-22T13:18:24.007Z,7.40
2022-12-22T13:21:18.608Z,13.52
2022-12-22T13:24:23.345Z,6.55
2022-12-22T13:26:47.457Z,11.52
2022-12-22T13:29:22.683Z,2.97
2022-12-22T13:32:04.663Z,3.55
2022-12-22T13:34:57.652Z,14.50
2022-12-22T13:37:28.495Z,8.80
2022-12-22T13:40:19.286Z,16.08
2022-12-22T13:42:49.894Z,7.65
2022-12-22T13:45:22.819Z,8.07
2022-12-22T13:47:50.574Z,11.23
2022-12-22T13:50:39.034Z,23.05
2022-12-22T13:53:09.251Z,19.02
2022-12-22T13:55:37.228Z,5.80
2022-12-22T13:58:21.378Z,10.07
2022-12-22T14:01:01.275Z,11.77
2022-12-22T14:03:58.367Z,7.18
2022-12-22T14:06:27.616Z,8.70
2022-12-22T14:08:55.098Z,7.07
2022-12-22T14:11:22.092Z,10.60
2022-12-22T14:13:49.117Z,10.68
2022-12-22T14:16:16.154Z,13.75
2022-12-22T14:18:43.406Z,35.75
2022-12-22T14:21:11.906Z,10.95
2022-12-22T14:23:41.787Z,5.82
2022-12-22T14:26:17.448Z,10.07
2022-12-22T14:28:50.954Z,16.88
2022-12-22T14:31:18.436Z,13.27
2022-12-22T14:33:56.906Z,9.43
2022-12-22T14:36:27.650Z,12.45
2022-12-22T14:39:03.736Z,13.05
2022-12-22T14:41:51.510Z,12.18
2022-12-22T14:44:22.601Z,12.50
2022-12-22T14:47:20.256Z,22.80
2022-12-22T14:49:50.925Z,24.33
2022-12-22T14:52:26.933Z,15.95
2022-12-22T14:54:55.506Z,10.52
2022-12-22T14:57:35.308Z,3.97
2022-12-22T15:00:22.390Z,10.63
2022-12-22T15:03:02.055Z,7.88
2022-12-22T15:05:38.415Z,10.18
2022-12-22T15:08:26.516Z,15.88
2022-12-22T15:10:53.356Z,31.63
2022-12-22T15:13:24.110Z,28.88
2022-12-22T15:15:52.286Z,14.48
2022-12-22T15:18:26.098Z,6.70
2022-12-22T15:23:20.701Z,19.58
2022-12-22T15:25:47.855Z,15.63
2022-12-22T15:28:14.823Z,15.52
2022-12-22T15:30:42.235Z,24.10
2022-12-22T15:33:17.814Z,44.92
2022-12-22T15:35:45.763Z,26.75
2022-12-22T15:38:18.579Z,50.28
2022-12-22T15:40:45.619Z,29.67
2022-12-22T15:43:36.629Z,33.40
2022-12-22T15:45:59.847Z,33.30
2022-12-22T15:48:33.121Z,37.17
2022-12-22T15:51:02.128Z,24.00
2022-12-22T15:53:29.514Z,26.67
2022-12-22T15:55:58.714Z,23.05
2022-12-22T15:58:35.553Z,21.33
2022-12-22T16:01:02.463Z,10.65
2022-12-22T16:03:29.418Z,15.07
2022-12-22T16:05:56.626Z,24.27
2022-12-22T16:08:29.823Z,39.15
2022-12-22T16:10:56.849Z,8.02
2022-12-22T16:13:27.495Z,14.35
2022-12-22T16:15:57.198Z,29.17
2022-12-22T16:18:24.541Z,14.60
2022-12-22T16:20:52.118Z,17.27
2022-12-22T16:23:26.820Z,21.05
2022-12-22T16:26:00.979Z,12.32
2022-12-22T16:28:29.106Z,15.48
2022-12-22T16:30:55.909Z,19.02
2022-12-22T16:33:22.718Z,14.75
2022-12-22T16:35:50.496Z,18.10
2022-12-22T16:38:19.286Z,25.13
2022-12-22T16:40:49.763Z,34.40
2022-12-22T16:46:13.734Z,27.90
2022-12-22T16:48:44.514Z,21.80
2022-12-22T16:51:19.382Z,12.73
2022-12-22T16:53:46.320Z,16.15
2022-12-22T16:56:16.913Z,20.92
2022-12-22T16:58:44.468Z,17.15
2022-12-22T17:01:40.123Z,15.07
2022-12-22T17:04:14.862Z,14.18
2022-12-22T17:06:42.498Z,20.73
2022-12-22T17:09:19.500Z,10.10
2022-12-22T17:11:47.925Z,11.65
2022-12-22T17:14:33.306Z,6.72
2022-12-22T17:17:00.228Z,10.25
2022-12-22T17:19:27.188Z,12.27
2022-12-22T17:21:57.159Z,6.28
2022-12-22T17:24:28.116Z,8.52
2022-12-22T17:27:01.198Z,6.78
2022-12-22T17:29:28.513Z,7.30
2022-12-22T17:31:56.980Z,10.57
2022-12-22T17:34:24.167Z,10.88
2022-12-22T17:36:51.506Z,6.68
2022-12-22T17:39:23.377Z,9.20
2022-12-22T17:41:56.191Z,7.20
2022-12-22T17:44:24.912Z,7.65
2022-12-22T17:46:52.126Z,9.70
2022-12-22T17:49:22.443Z,15.32
2022-12-22T17:51:50.426Z,16.15
2022-12-22T17:54:22.787Z,10.88
2022-12-22T17:56:50.176Z,36.28
2022-12-22T17:59:17.022Z,14.15
2022-12-22T18:01:43.987Z,23.95
2022-12-22T18:04:11.037Z,20.20
2022-12-22T18:06:41.747Z,17.85
2022-12-22T18:09:18.651Z,16.50
2022-12-22T18:11:47.308Z,15.50
2022-12-22T18:14:15.517Z,11.65
2022-12-22T18:16:43.446Z,12.35
2022-12-22T18:19:10.661Z,14.52
2022-12-22T18:21:38.043Z,10.77
2022-12-22T18:24:06.356Z,3.45
2022-12-22T18:26:33.379Z,10.02
2022-12-22T18:29:01.936Z,7.75
2022-12-22T18:31:28.975Z,4.20
2022-12-22T18:33:55.834Z,8.68
2022-12-22T18:36:32.734Z,4.60
2022-12-22T18:39:01.715Z,9.57
2022-12-22T18:41:32.974Z,6.28
2022-12-22T18:43:59.819Z,4.57
2022-12-22T18:46:26.802Z,3.90
2022-12-22T18:48:57.797Z,4.65
2022-12-22T18:51:27.658Z,5.65
2022-12-22T18:53:55.172Z,4.63
2022-12-22T18:56:22.211Z,27.80
2022-12-22T18:58:49.794Z,4.70
2022-12-22T19:01:20.595Z,5.90
2022-12-22T19:03:48.282Z,3.30
2022-12-22T19:06:18.496Z,6.65
2022-12-22T19:08:47.490Z,12.70
2022-12-22T19:11:16.736Z,6.53
2022-12-22T19:13:50.084Z,3.72
2022-12-22T19:16:21.664Z,6.07
2022-12-22T19:18:48.675Z,3.40
2022-12-22T19:21:18.213Z,3.97
2022-12-22T19:23:45.336Z,3.05
2022-12-22T19:26:24.083Z,6.10
2022-12-22T19:28:53.902Z,4.97
2022-12-22T19:31:26.764Z,3.83
2022-12-22T19:33:55.510Z,8.73
2022-12-22T19:36:27.445Z,8.45
2022-12-22T19:39:04.102Z,7.43
2022-12-22T19:41:48.873Z,13.82
2022-12-22T19:44:20.002Z,7.15
2022-12-22T19:46:48.602Z,6.93
2022-12-22T19:49:18.467Z,7.90
2022-12-22T19:51:45.654Z,5.90
2022-12-22T19:54:12.517Z,12.15
2022-12-22T19:56:41.217Z,6.85
2022-12-22T19:59:26.930Z,8.75
2022-12-22T20:01:56.327Z,20.67
2022-12-22T20:04:23.350Z,8.45
2022-12-22T20:06:50.392Z,10.52
2022-12-22T20:09:17.727Z,15.75
2022-12-22T20:11:45.035Z,8.45
2022-12-22T20:14:18.852Z,12.60
2022-12-22T20:16:45.969Z,10.07
2022-12-22T20:19:14.387Z,5.85
2022-12-22T20:21:42.291Z,7.35
2022-12-22T20:24:20.299Z,7.10
2022-12-22T20:26:53.448Z,6.32
2022-12-22T20:29:21.285Z,7.15
2022-12-22T20:31:50.372Z,6.60
2022-12-22T20:34:17.255Z,7.93
2022-12-22T20:36:44.507Z,9.18
2022-12-22T20:39:14.441Z,7.88
2022-12-22T20:41:45.692Z,10.20
2022-12-22T20:44:15.852Z,13.07
2022-12-22T20:46:42.873Z,11.75
2022-12-22T20:49:15.257Z,10.07
2022-12-22T20:51:43.479Z,9.18
2022-12-22T20:54:14.404Z,10.88
2022-12-22T20:56:43.733Z,7.07
2022-12-22T20:59:19.327Z,6.70
2022-12-22T21:01:49.237Z,8.40
2022-12-22T21:04:17.411Z,11.02
2022-12-22T21:06:51.027Z,7.50
2022-12-22T21:09:18.502Z,12.32
2022-12-22T21:11:45.642Z,8.55
2022-12-22T21:14:13.814Z,9.23
2022-12-22T21:16:42.331Z,8.73
2022-12-22T21:19:16.240Z,8.90
2022-12-22T21:21:43.798Z,9.82
2022-12-22T21:24:10.768Z,9.68
2022-12-22T21:26:43.317Z,9.48
2022-12-22T21:29:17.057Z,14.65
2022-12-22T21:31:45.129Z,11.80
2022-12-22T21:34:12.217Z,12.65
2022-12-22T21:36:40.579Z,11.57
2022-12-22T21:39:20.686Z,13.02
2022-12-22T21:42:05.031Z,16.10
2022-12-22T21:44:34.481Z,14.18
2022-12-22T21:47:02.150Z,18.05
2022-12-22T21:49:31.575Z,14.48
2022-12-22T21:51:58.788Z,19.67
2022-12-22T21:54:26.851Z,13.32
2022-12-22T21:56:54.427Z,11.55
2022-12-22T21:59:22.603Z,11.73
2022-12-22T22:01:53.702Z,12.93
2022-12-22T22:04:21.421Z,8.90
2022-12-22T22:06:48.458Z,14.55
2022-12-22T22:09:15.341Z,11.18
2022-12-22T22:12:01.694Z,8.40
2022-12-22T22:14:29.173Z,8.32
2022-12-22T22:16:56.217Z,14.82
2022-12-22T22:19:23.107Z,11.15
2022-12-22T22:21:50.005Z,8.27
2022-12-22T22:24:16.806Z,10.10
2022-12-22T22:26:46.129Z,9.60
2022-12-22T22:29:14.004Z,20.80
2022-12-22T22:31:41.395Z,14.32
2022-12-22T22:34:09.389Z,15.80
2022-12-22T22:36:36.287Z,9.07
2022-12-22T22:39:03.596Z,10.48
2022-12-22T22:41:35.206Z,11.05
2022-12-22T22:46:31.656Z,10.88
2022-12-22T22:48:58.874Z,10.18
2022-12-22T22:51:25.962Z,11.07
2022-12-22T22:53:52.855Z,12.13
2022-12-22T22:56:19.985Z,14.23
2022-12-22T22:58:46.861Z,13.63
2022-12-22T23:01:14.128Z,11.82
2022-12-22T23:03:43.440Z,11.90
2022-12-22T23:06:13.243Z,10.27
2022-12-22T23:08:40.232Z,10.13
2022-12-22T23:11:13.547Z,12.57
2022-12-22T23:13:41.111Z,16.98
2022-12-22T23:16:08.340Z,15.02
2022-12-22T23:18:35.333Z,13.10
2022-12-22T23:21:05.744Z,13.93
2022-12-22T23:23:34.336Z,10.82
2022-12-22T23:26:01.472Z,13.02
2022-12-22T23:28:28.335Z,8.27
2022-12-22T23:30:55.267Z,11.93
2022-12-22T23:33:22.214Z,14.82
2022-12-22T23:35:50.640Z,9.80
2022-12-22T23:38:19.172Z,6.95
2022-12-22T23:40:54.876Z,7.00
2022-12-22T23:43:22.112Z,8.65
2022-12-22T23:45:50.400Z,8.88
2022-12-22T23:48:17.326Z,7.95
2022-12-22T23:50:48.406Z,13.20
2022-12-22T23:53:16.639Z,17.02
2022-12-22T23:55:48.034Z,7.57
2022-12-22T23:58:16.460Z,9.93
